createdAt,value
2022-11-24T00:00:07.086Z,8.7
2022-11-24T00:05:10.241Z,9.2
2022-11-24T00:10:06.645Z,6.7
2022-11-24T00:15:07.217Z,10.1
2022-11-24T00:20:06.345Z,10.6
2022-11-24T00:25:06.769Z,9.8
2022-11-24T00:30:07.079Z,10.7
2022-11-24T00:35:07.265Z,6.8
2022-11-24T00:40:06.600Z,9.6
2022-11-24T00:45:06.755Z,8
2022-11-24T00:50:07.345Z,7.4
2022-11-24T00:55:07.576Z,8.8
2022-11-24T01:00:07.206Z,8
2022-11-24T01:05:06.709Z,8.1
2022-11-24T01:10:07.094Z,6.4
2022-11-24T01:15:07.371Z,4.6
2022-11-24T01:20:06.952Z,7.5
2022-11-24T01:25:06.978Z,6.5
2022-11-24T01:30:06.212Z,6
2022-11-24T01:35:06.847Z,5.6
2022-11-24T01:40:06.787Z,5.7
2022-11-24T01:45:07.321Z,6.9
2022-11-24T01:50:06.636Z,6.6
2022-11-24T01:55:07.136Z,8.3
2022-11-24T02:00:07.699Z,4.9
2022-11-24T02:05:07.140Z,5.7
2022-11-24T02:10:07.570Z,4.6
2022-11-24T02:15:06.834Z,2.7
2022-11-24T02:20:07.004Z,3.2
2022-11-24T02:25:07.157Z,3.6
2022-11-24T02:30:06.672Z,3
2022-11-24T02:35:06.693Z,6.3
2022-11-24T02:40:06.779Z,4.4
2022-11-24T02:45:06.871Z,5.6
2022-11-24T02:50:07.260Z,5
2022-11-24T02:55:07.344Z,3.9
2022-11-24T03:00:07.604Z,5.5
2022-11-24T03:05:06.649Z,5.3
2022-11-24T03:10:06.984Z,7
2022-11-24T03:15:07.148Z,5.5
2022-11-24T03:20:07.292Z,5
2022-11-24T03:25:06.387Z,5.7
2022-11-24T03:30:06.591Z,4.5
2022-11-24T03:35:06.716Z,4.8
2022-11-24T03:40:06.825Z,4.2
2022-11-24T03:45:07.055Z,5.6
2022-11-24T03:50:07.187Z,5.8
2022-11-24T03:55:06.480Z,6.4
2022-11-24T04:00:06.858Z,5.1
2022-11-24T04:05:06.649Z,4.7
2022-11-24T04:10:06.892Z,3.3
2022-11-24T04:15:07.014Z,3
2022-11-24T04:20:07.203Z,2.6
2022-11-24T04:25:06.373Z,4
2022-11-24T04:30:06.511Z,2.8
2022-11-24T04:35:06.666Z,2
2022-11-24T04:40:06.837Z,3.2
2022-11-24T04:45:07.016Z,2.6
2022-11-24T04:50:07.238Z,2.8
2022-11-24T04:55:06.344Z,2.8
2022-11-24T05:00:06.617Z,2.6
2022-11-24T05:05:06.357Z,2.6
2022-11-24T05:10:06.669Z,1.6
2022-11-24T05:15:07.122Z,3.3
2022-11-24T05:20:06.868Z,3.8
2022-11-24T05:25:07.101Z,2.5
2022-11-24T05:30:07.202Z,3.9
2022-11-24T05:35:06.376Z,3.2
2022-11-24T05:40:06.529Z,4.1
2022-11-24T05:45:06.688Z,4.6
2022-11-24T05:50:06.970Z,2.4
2022-11-24T05:55:07.237Z,4
2022-11-24T06:00:06.594Z,3.7
2022-11-24T06:05:06.327Z,3.4
2022-11-24T06:10:06.898Z,3.3
2022-11-24T06:15:07.010Z,3.6
2022-11-24T06:20:07.246Z,4.2
2022-11-24T06:25:06.670Z,5.2
2022-11-24T06:30:06.716Z,4.9
2022-11-24T06:35:06.626Z,5.3
2022-11-24T06:40:06.914Z,6.3
2022-11-24T06:45:07.077Z,6.6
2022-11-24T06:50:07.250Z,5.5
2022-11-24T06:55:06.308Z,6
2022-11-24T07:00:06.789Z,7.9
2022-11-24T07:05:06.446Z,8.6
2022-11-24T07:10:06.589Z,8
2022-11-24T07:15:06.869Z,12.8
2022-11-24T07:20:07.139Z,16.7
2022-11-24T07:25:06.276Z,4.4
2022-11-24T07:30:06.596Z,6.9
2022-11-24T07:35:06.805Z,9.2
2022-11-24T07:40:07.145Z,7.9
2022-11-24T07:45:06.508Z,9.9
2022-11-24T07:50:06.691Z,10.8
2022-11-24T07:55:06.999Z,10.8
2022-11-24T08:00:07.384Z,10.9
2022-11-24T08:05:07.198Z,15.6
2022-11-24T08:10:06.514Z,14.1
2022-11-24T08:15:06.637Z,12.6
2022-11-24T08:20:06.855Z,11.1
2022-11-24T08:25:06.909Z,7.7
2022-11-24T08:30:07.157Z,9.4
2022-11-24T08:35:06.403Z,10.9
2022-11-24T08:40:07.124Z,8.2
2022-11-24T08:45:06.304Z,8.7
2022-11-24T08:50:06.644Z,7.8
2022-11-24T08:55:06.797Z,7
2022-11-24T09:00:07.156Z,10
2022-11-24T09:05:06.898Z,6.6
2022-11-24T09:10:07.026Z,11
2022-11-24T09:15:07.132Z,9.5
2022-11-24T09:20:06.341Z,6.6
2022-11-24T09:25:06.512Z,4.9
2022-11-24T09:30:06.902Z,7.7
2022-11-24T09:35:07.034Z,6.7
2022-11-24T09:40:07.115Z,6.1
2022-11-24T09:45:06.276Z,8.7
2022-11-24T09:50:06.867Z,6.4
2022-11-24T09:55:06.558Z,7.8
2022-11-24T10:00:06.450Z,5.3
2022-11-24T10:05:07.175Z,9.6
2022-11-24T10:10:06.481Z,7.9
2022-11-24T10:15:06.627Z,9.2
2022-11-24T10:20:06.858Z,8.2
2022-11-24T10:25:06.348Z,7.1
2022-11-24T10:30:06.416Z,8.7
2022-11-24T10:35:06.602Z,8.3
2022-11-24T10:40:07.174Z,7
2022-11-24T10:45:06.921Z,8.9
2022-11-24T10:50:07.093Z,7.4
2022-11-24T10:55:06.873Z,6.2
2022-11-24T11:00:06.528Z,6.7
2022-11-24T11:05:07.270Z,4.8
2022-11-24T11:10:06.540Z,6.2
2022-11-24T11:15:06.638Z,5.8
2022-11-24T11:20:06.839Z,5.5
2022-11-24T11:25:07.005Z,6.4
2022-11-24T11:35:06.977Z,8.4
2022-11-24T11:40:07.223Z,7.7
2022-11-24T11:45:06.481Z,6.6
2022-11-24T11:50:06.978Z,5.5
2022-11-24T11:55:07.007Z,3.5
2022-11-24T12:00:06.431Z,3
2022-11-24T12:05:06.365Z,8
2022-11-24T12:10:07.211Z,6.2
2022-11-24T12:15:06.354Z,3.8
2022-11-24T12:20:06.685Z,5.2
2022-11-24T12:25:06.350Z,5.8
2022-11-24T12:30:06.372Z,4.6
2022-11-24T12:35:06.817Z,7.8
2022-11-24T12:40:07.272Z,9
2022-11-24T12:45:06.594Z,11.6
2022-11-24T12:50:06.574Z,8.4
2022-11-24T12:55:07.015Z,8.9
2022-11-24T13:00:07.347Z,9.1
2022-11-24T13:05:07.143Z,5.6
2022-11-24T13:15:06.701Z,9.1
2022-11-24T13:20:06.880Z,10.8
2022-11-24T13:25:06.334Z,8.6
2022-11-24T13:30:06.664Z,10.1
2022-11-24T13:35:07.117Z,10.3
2022-11-24T13:40:06.402Z,10.1
2022-11-24T13:45:07.043Z,10.9
2022-11-24T13:50:06.600Z,9.6
2022-11-24T13:55:06.781Z,11.6
2022-11-24T14:00:06.922Z,11.7
2022-11-24T14:05:07.064Z,11.1
2022-11-24T14:10:06.422Z,10.3
2022-11-24T14:15:06.438Z,10.4
2022-11-24T14:20:06.611Z,12.2
2022-11-24T14:25:06.761Z,11.5
2022-11-24T14:30:07.028Z,10.5
2022-11-24T14:35:07.216Z,8.9
2022-11-24T14:40:06.454Z,11.4
2022-11-24T14:45:07.010Z,11.2
2022-11-24T14:50:07.232Z,18.5
2022-11-24T14:55:06.448Z,15
2022-11-24T15:00:06.803Z,24.2
2022-11-24T15:05:06.579Z,20.2
2022-11-24T15:10:07.129Z,25.3
2022-11-24T15:15:06.439Z,17.4
2022-11-24T15:20:06.930Z,19.6
2022-11-24T15:25:06.482Z,16.3
2022-11-24T15:30:06.742Z,18.1
2022-11-24T15:35:06.877Z,15
2022-11-24T15:40:07.080Z,17.6
2022-11-24T15:45:07.292Z,18.1
2022-11-24T15:50:06.431Z,15.2
2022-11-24T15:55:06.825Z,20
2022-11-24T16:00:07.132Z,13.9
2022-11-24T16:05:06.923Z,15.2
2022-11-24T16:10:07.018Z,15.1
2022-11-24T16:15:06.951Z,11.9
2022-11-24T16:20:07.218Z,14.2
2022-11-24T16:25:06.919Z,12.5
2022-11-24T16:30:07.220Z,13.9
2022-11-24T16:35:06.465Z,19.3
2022-11-24T16:40:06.827Z,14.6
2022-11-24T16:45:06.909Z,12.5
2022-11-24T16:50:07.278Z,8.5
2022-11-24T16:55:06.618Z,10.2
2022-11-24T17:00:06.994Z,12.4
2022-11-24T17:05:06.670Z,7
2022-11-24T17:10:07.093Z,7.4
2022-11-24T17:15:07.217Z,8.3
2022-11-24T17:20:06.538Z,5.2
2022-11-24T17:25:06.789Z,7.7
2022-11-24T17:30:06.834Z,9.9
2022-11-24T17:35:06.537Z,8.8
2022-11-24T17:40:06.857Z,11.6
2022-11-24T17:45:07.076Z,10.9
2022-11-24T17:50:07.234Z,9.2
2022-11-24T17:55:06.435Z,9.9
2022-11-24T18:00:06.741Z,11.9
2022-11-24T18:05:06.593Z,6.3
2022-11-24T18:10:06.956Z,12.6
2022-11-24T18:15:06.875Z,12.9
2022-11-24T18:20:07.160Z,12
2022-11-24T18:25:06.307Z,13.6
2022-11-24T18:30:06.650Z,11.9
2022-11-24T18:35:06.745Z,12.7
2022-11-24T18:40:06.795Z,12.4
2022-11-24T18:45:07.212Z,16.1
2022-11-24T18:50:07.121Z,14.5
2022-11-24T18:55:06.324Z,13.7
2022-11-24T19:00:06.604Z,11.4
2022-11-24T19:05:06.292Z,10.8
2022-11-24T19:10:06.669Z,13.8
2022-11-24T19:15:06.822Z,14.6
2022-11-24T19:20:07.034Z,9.2
2022-11-24T19:25:07.135Z,14.1
2022-11-24T19:30:06.308Z,10.9
2022-11-24T19:35:06.653Z,12.6
2022-11-24T19:40:06.854Z,13.1
2022-11-24T19:45:07.025Z,13.5
2022-11-24T19:50:07.245Z,14.5
2022-11-24T19:55:06.356Z,14.7
2022-11-24T20:00:06.790Z,15.8
2022-11-24T20:05:06.726Z,14.5
2022-11-24T20:10:06.809Z,13.6
2022-11-24T20:15:07.081Z,18.3
2022-11-24T20:20:07.212Z,14.2
2022-11-24T20:25:06.391Z,13.9
2022-11-24T20:30:06.450Z,15.6
2022-11-24T20:35:06.702Z,13.9
2022-11-24T20:40:06.976Z,18.8
2022-11-24T20:45:07.155Z,20.8
2022-11-24T20:50:06.472Z,28
2022-11-24T20:55:07.080Z,22.7
2022-11-24T21:00:07.231Z,22.1
2022-11-24T21:05:06.884Z,26.3
2022-11-24T21:10:07.174Z,59
2022-11-24T21:15:07.226Z,32.2
2022-11-24T21:20:06.467Z,30.6
2022-11-24T21:25:06.715Z,31.7
2022-11-24T21:30:06.995Z,30.2
2022-11-24T21:35:06.310Z,29.1
2022-11-24T21:40:06.464Z,28.7
2022-11-24T21:45:06.737Z,25.7
2022-11-24T21:50:06.706Z,27.8
2022-11-24T21:55:06.509Z,25.2
2022-11-24T22:00:06.770Z,29
2022-11-24T22:05:06.450Z,23.2
2022-11-24T22:10:06.597Z,26.9
2022-11-24T22:15:06.947Z,30.1
2022-11-24T22:20:07.123Z,28.9
2022-11-24T22:25:06.254Z,31.6
2022-11-24T22:30:06.456Z,32.7
2022-11-24T22:35:06.691Z,20.8
2022-11-24T22:40:06.799Z,20.9
2022-11-24T22:45:07.007Z,18.2
2022-11-24T22:50:07.185Z,19.2
2022-11-24T22:55:07.132Z,14.7
2022-11-24T23:00:07.205Z,12.4
2022-11-24T23:05:07.241Z,7.9
2022-11-24T23:10:06.603Z,11.3
2022-11-24T23:15:06.881Z,10.4
2022-11-24T23:20:07.135Z,9.1
2022-11-24T23:25:06.409Z,9.7
2022-11-24T23:30:06.715Z,11
2022-11-24T23:35:09.580Z,8.7
2022-11-24T23:40:07.003Z,10.5
2022-11-24T23:45:07.066Z,10.9
2022-11-24T23:50:06.379Z,10.2
2022-11-24T23:55:06.687Z,10.1
